Time;durP1;ratioP1;P1;durP2;ratioP2;P2;SDS_P1;SDS_P2;PMS_P1;PMS_P2;Temp;Humidity;BMP_temperature;BMP_pressure;BME280_temperature;BME280_humidity;BME280_pressure;Samples;Min_cycle;Max_cycle;Signal;HPM_P1;HPM_P2
2023/08/08 00:02:27;;;;;;;4.07;1.50;;;14.70;99.90;;;;;;4833681;29;20039;-53
2023/08/08 00:04:54;;;;;;;6.60;1.80;;;14.60;99.90;;;;;;4825928;29;20126;-54
2023/08/08 00:07:21;;;;;;;5.97;1.92;;;14.60;99.90;;;;;;4825601;29;20490;-55
2023/08/08 00:09:47;;;;;;;4.80;1.80;;;14.60;99.90;;;;;;4826108;29;20144;-56
2023/08/08 00:12:14;;;;;;;4.80;1.80;;;14.50;99.90;;;;;;4839931;29;20046;-55
2023/08/08 00:14:41;;;;;;;5.45;1.75;;;14.50;99.90;;;;;;4825481;29;20481;-53
2023/08/08 00:17:08;;;;;;;5.63;1.70;;;14.50;99.90;;;;;;4839558;29;20397;-50
2023/08/08 00:19:34;;;;;;;4.10;1.70;;;14.50;99.90;;;;;;4825646;29;20509;-55
2023/08/08 00:22:01;;;;;;;4.30;1.48;;;14.40;99.90;;;;;;4839842;29;20046;-55
2023/08/08 00:24:28;;;;;;;4.45;1.33;;;14.40;99.90;;;;;;4825834;29;20066;-56
2023/08/08 00:26:55;;;;;;;9.27;1.50;;;14.40;99.90;;;;;;4825633;29;20077;-51
2023/08/08 00:29:22;;;;;;;3.20;1.42;;;14.40;99.90;;;;;;4825713;29;20401;-55
2023/08/08 00:31:48;;;;;;;5.25;1.55;;;14.40;99.90;;;;;;4839719;29;20072;-50
2023/08/08 00:34:15;;;;;;;6.60;1.75;;;14.40;99.90;;;;;;4839214;29;20065;-53
2023/08/08 00:36:42;;;;;;;6.40;1.50;;;14.30;99.90;;;;;;4825215;29;20137;-54
2023/08/08 00:39:10;;;;;;;3.67;1.40;;;14.40;99.90;;;;;;4825717;29;20054;-51
2023/08/08 00:41:37;;;;;;;6.85;1.52;;;14.40;99.90;;;;;;4839177;29;20046;-56
2023/08/08 00:44:04;;;;;;;5.10;1.80;;;14.40;99.90;;;;;;4838262;29;20064;-57
2023/08/08 00:46:31;;;;;;;4.18;1.50;;;14.40;99.90;;;;;;4825206;29;20064;-53
2023/08/08 00:48:58;;;;;;;4.18;1.80;;;14.40;99.90;;;;;;4825566;29;20046;-53
2023/08/08 00:51:24;;;;;;;6.45;2.08;;;14.50;99.90;;;;;;4825346;29;20046;-55
2023/08/08 00:53:53;;;;;;;6.20;1.50;;;14.50;99.90;;;;;;4839084;29;20034;-54
2023/08/08 00:56:20;;;;;;;5.30;1.70;;;14.50;99.90;;;;;;4839252;29;20054;-56
2023/08/08 00:58:50;;;;;;;4.60;1.40;;;14.50;99.90;;;;;;4839320;29;20068;-51
2023/08/08 01:01:17;;;;;;;7.40;1.85;;;14.50;99.90;;;;;;4825420;29;20049;-53
2023/08/08 01:03:43;;;;;;;3.00;1.40;;;14.50;99.90;;;;;;4838981;29;20081;-57
2023/08/08 01:06:11;;;;;;;5.10;2.05;;;14.60;99.90;;;;;;4825099;29;20046;-55
2023/08/08 01:08:38;;;;;;;4.47;1.42;;;14.50;99.90;;;;;;4825047;29;20057;-56
2023/08/08 01:11:04;;;;;;;6.47;1.83;;;14.50;99.90;;;;;;4824769;29;20057;-57
2023/08/08 01:13:31;;;;;;;5.60;2.03;;;14.40;99.90;;;;;;4824872;29;20057;-55
2023/08/08 01:15:58;;;;;;;4.93;1.73;;;14.40;99.90;;;;;;4824752;29;20050;-57
2023/08/08 01:18:25;;;;;;;6.47;1.95;;;14.40;99.90;;;;;;4825008;29;20386;-52
2023/08/08 01:20:51;;;;;;;5.80;1.42;;;14.40;99.90;;;;;;4825107;29;20490;-57
2023/08/08 01:23:18;;;;;;;5.40;1.58;;;14.30;99.90;;;;;;4838748;29;20039;-53
2023/08/08 01:25:45;;;;;;;7.22;1.70;;;14.30;99.90;;;;;;4838542;29;20050;-54
2023/08/08 01:28:12;;;;;;;3.80;1.50;;;14.20;99.90;;;;;;4838334;29;20046;-55
2023/08/08 01:30:39;;;;;;;4.80;1.60;;;14.20;99.90;;;;;;4824240;29;20048;-56
2023/08/08 01:33:06;;;;;;;4.65;1.73;;;14.10;99.90;;;;;;4824295;29;20522;-54
2023/08/08 01:35:33;;;;;;;5.25;1.80;;;14.10;99.90;;;;;;4838376;29;20065;-55
2023/08/08 01:38:01;;;;;;;3.53;1.70;;;14.10;99.90;;;;;;4838326;29;20119;-51
2023/08/08 01:40:27;;;;;;;3.65;1.65;;;14.00;99.90;;;;;;4838546;29;20056;-53
2023/08/08 01:42:54;;;;;;;7.70;2.08;;;14.00;99.90;;;;;;4838047;29;20047;-55
2023/08/08 01:45:21;;;;;;;5.30;1.63;;;13.90;99.90;;;;;;4824404;29;20042;-53
2023/08/08 01:47:49;;;;;;;4.55;1.40;;;13.90;99.90;;;;;;4824233;29;20129;-57
2023/08/08 01:50:16;;;;;;;5.43;1.70;;;13.80;99.90;;;;;;4824543;29;20089;-57
2023/08/08 01:52:43;;;;;;;5.80;1.88;;;13.80;99.90;;;;;;4824238;29;20038;-57
2023/08/08 01:55:09;;;;;;;4.63;1.48;;;13.80;99.90;;;;;;4840251;29;20130;-57
2023/08/08 01:57:36;;;;;;;3.50;1.45;;;13.70;99.90;;;;;;4827745;29;20557;-57
2023/08/08 02:00:04;;;;;;;6.05;1.58;;;13.70;99.90;;;;;;4841710;29;20050;-56
2023/08/08 02:02:40;;;;;;;4.32;1.75;;;13.60;99.90;;;;;;4827813;29;20047;-56
2023/08/08 02:05:07;;;;;;;5.50;1.50;;;13.60;99.90;;;;;;4828127;29;20054;-57
2023/08/08 02:07:34;;;;;;;3.78;1.67;;;13.60;99.90;;;;;;4827788;29;20493;-52
2023/08/08 02:10:01;;;;;;;7.85;1.90;;;13.60;99.90;;;;;;4827910;29;20125;-50
2023/08/08 02:12:30;;;;;;;3.92;1.48;;;13.50;99.90;;;;;;4841889;29;20046;-50
2023/08/08 02:14:57;;;;;;;5.57;1.90;;;13.50;99.90;;;;;;4842103;29;20061;-50
2023/08/08 02:17:24;;;;;;;3.78;1.60;;;13.50;99.90;;;;;;4827695;29;20057;-50
2023/08/08 02:19:51;;;;;;;5.22;1.23;;;13.50;99.90;;;;;;4827727;29;20088;-49
2023/08/08 02:22:18;;;;;;;5.70;1.45;;;13.40;99.90;;;;;;4826056;29;20110;-55
2023/08/08 02:24:45;;;;;;;7.78;1.73;;;13.40;99.90;;;;;;4827611;29;20038;-56
2023/08/08 02:27:12;;;;;;;6.30;1.60;;;13.40;99.90;;;;;;4841102;29;20133;-56
2023/08/08 02:29:39;;;;;;;6.57;1.70;;;13.40;99.90;;;;;;4827139;29;20081;-56
2023/08/08 02:32:06;;;;;;;3.95;1.42;;;13.30;99.90;;;;;;4827168;29;20054;-56
2023/08/08 02:34:33;;;;;;;5.90;1.70;;;13.30;99.90;;;;;;4826973;29;20050;-53
2023/08/08 02:36:59;;;;;;;4.20;1.63;;;13.30;99.90;;;;;;4826988;29;20054;-52
2023/08/08 02:39:26;;;;;;;5.95;1.60;;;13.30;99.90;;;;;;4840896;29;20077;-49
2023/08/08 02:41:53;;;;;;;4.65;1.65;;;13.30;99.90;;;;;;4841257;29;20056;-50
2023/08/08 02:44:22;;;;;;;4.65;1.58;;;13.30;99.90;;;;;;4840882;29;20129;-53
2023/08/08 02:46:49;;;;;;;6.22;1.75;;;13.20;99.90;;;;;;4840908;29;20053;-55
2023/08/08 02:49:15;;;;;;;6.47;1.95;;;13.20;99.90;;;;;;4840921;29;20072;-56
2023/08/08 02:51:42;;;;;;;4.05;1.60;;;13.20;99.90;;;;;;4826589;29;20046;-53
2023/08/08 02:54:09;;;;;;;4.32;1.65;;;13.20;99.90;;;;;;4840781;29;20396;-52
2023/08/08 02:56:39;;;;;;;6.05;1.85;;;13.20;99.90;;;;;;4840696;29;20111;-55
2023/08/08 02:59:06;;;;;;;4.25;1.60;;;13.20;99.90;;;;;;4826596;29;20125;-55
2023/08/08 03:01:37;;;;;;;3.53;1.60;;;13.10;99.90;;;;;;4840681;29;20447;-55
2023/08/08 03:04:06;;;;;;;3.95;1.80;;;13.10;99.90;;;;;;4840895;29;20482;-50
2023/08/08 03:06:32;;;;;;;3.40;1.92;;;13.10;99.90;;;;;;4839668;29;20058;-54
2023/08/08 03:09:00;;;;;;;3.80;1.52;;;13.10;99.90;;;;;;4840601;29;20106;-52
2023/08/08 03:11:27;;;;;;;6.55;1.63;;;13.10;99.90;;;;;;4845967;29;20061;-52
2023/08/08 03:13:54;;;;;;;4.68;1.55;;;13.10;99.90;;;;;;4862049;29;20413;-53
2023/08/08 03:16:21;;;;;;;4.25;1.75;;;13.10;99.90;;;;;;4862931;29;20395;-53
2023/08/08 03:18:48;;;;;;;6.60;1.77;;;13.20;99.90;;;;;;4877217;29;20069;-53
2023/08/08 03:21:15;;;;;;;4.57;1.50;;;13.20;99.90;;;;;;4863224;29;20037;-53
2023/08/08 03:23:42;;;;;;;6.75;1.55;;;13.30;99.90;;;;;;4877521;29;20132;-50
2023/08/08 03:26:08;;;;;;;5.57;1.70;;;13.30;99.90;;;;;;4877732;29;20092;-52
2023/08/08 03:28:35;;;;;;;4.80;1.55;;;13.30;99.90;;;;;;4863513;29;20041;-53
2023/08/08 03:31:03;;;;;;;3.97;1.85;;;13.30;99.90;;;;;;4863063;29;20056;-54
2023/08/08 03:33:31;;;;;;;4.68;1.48;;;13.30;99.90;;;;;;4862097;29;20053;-55
2023/08/08 03:36:00;;;;;;;5.90;1.65;;;13.30;99.90;;;;;;4861943;29;20489;-50
2023/08/08 03:38:27;;;;;;;4.80;1.48;;;13.30;99.90;;;;;;4877931;29;20430;-49
2023/08/08 03:40:54;;;;;;;7.20;1.65;;;13.30;99.90;;;;;;4863059;29;20120;-51
2023/08/08 03:43:22;;;;;;;3.83;1.42;;;13.30;99.90;;;;;;4862327;29;20092;-51
2023/08/08 03:45:48;;;;;;;2.97;1.58;;;13.30;99.90;;;;;;4877527;29;20056;-52
2023/08/08 03:48:15;;;;;;;5.43;1.80;;;13.40;99.90;;;;;;4877403;29;20434;-51
2023/08/08 03:50:42;;;;;;;5.43;2.00;;;13.40;99.90;;;;;;4877259;29;20136;-53
2023/08/08 03:53:09;;;;;;;4.43;1.80;;;13.30;99.90;;;;;;4862956;29;20482;-55
2023/08/08 03:55:36;;;;;;;5.05;1.65;;;13.40;99.90;;;;;;4862692;29;20041;-52
2023/08/08 03:58:03;;;;;;;5.10;1.77;;;13.40;99.90;;;;;;4877143;29;20056;-53
2023/08/08 04:00:30;;;;;;;3.88;1.75;;;13.40;99.90;;;;;;4877060;29;20042;-55
2023/08/08 04:02:57;;;;;;;4.82;1.80;;;13.40;99.90;;;;;;4862726;29;20053;-50
2023/08/08 04:05:24;;;;;;;4.22;1.50;;;13.50;99.90;;;;;;4861315;29;20136;-54
2023/08/08 04:07:51;;;;;;;4.55;1.73;;;13.50;99.90;;;;;;4862484;29;20045;-53
2023/08/08 04:10:18;;;;;;;3.88;1.58;;;13.50;99.90;;;;;;4862725;29;20091;-53
2023/08/08 04:12:45;;;;;;;3.63;1.63;;;13.60;99.90;;;;;;4861561;29;20437;-53
2023/08/08 04:15:11;;;;;;;4.68;1.58;;;13.60;99.90;;;;;;4862584;29;20050;-50
2023/08/08 04:17:38;;;;;;;5.25;1.40;;;13.60;99.90;;;;;;4876405;29;20144;-56
2023/08/08 04:20:06;;;;;;;6.95;2.13;;;13.70;99.90;;;;;;4862530;29;20049;-56
2023/08/08 04:22:33;;;;;;;3.83;1.42;;;13.70;99.90;;;;;;4862131;29;20493;-55
2023/08/08 04:24:59;;;;;;;3.92;1.45;;;13.70;99.90;;;;;;4862358;29;20508;-56
2023/08/08 04:27:26;;;;;;;6.90;1.48;;;13.70;99.90;;;;;;4862142;29;20056;-54
2023/08/08 04:29:53;;;;;;;4.50;1.80;;;13.80;99.90;;;;;;4861917;29;20053;-52
2023/08/08 04:32:20;;;;;;;3.97;1.30;;;13.80;99.90;;;;;;4862324;29;20060;-56
2023/08/08 04:34:46;;;;;;;4.45;1.60;;;13.80;99.90;;;;;;4861810;29;20044;-50
2023/08/08 04:37:13;;;;;;;3.85;1.70;;;13.80;99.90;;;;;;4876296;29;20049;-54
2023/08/08 04:39:40;;;;;;;3.53;1.38;;;13.80;99.90;;;;;;4862220;29;20041;-53
2023/08/08 04:42:07;;;;;;;3.70;1.45;;;13.90;99.90;;;;;;4860823;29;20409;-50
2023/08/08 04:44:34;;;;;;;7.13;1.98;;;13.90;99.90;;;;;;4862077;29;20061;-53
2023/08/08 04:47:00;;;;;;;4.95;1.50;;;13.90;99.90;;;;;;4862084;29;20042;-57
2023/08/08 04:49:28;;;;;;;3.25;1.60;;;14.00;99.90;;;;;;4862521;29;20034;-56
2023/08/08 04:51:55;;;;;;;3.53;1.42;;;14.00;99.90;;;;;;4862232;29;20065;-49
2023/08/08 04:54:22;;;;;;;4.95;1.67;;;14.00;99.90;;;;;;4862170;29;20073;-51
2023/08/08 04:56:49;;;;;;;2.90;1.67;;;14.00;99.90;;;;;;4861914;29;20447;-50
2023/08/08 04:59:15;;;;;;;4.72;1.80;;;14.00;99.90;;;;;;4876105;29;20405;-52
2023/08/08 05:01:42;;;;;;;4.30;1.45;;;14.00;99.90;;;;;;4862073;29;20397;-51
2023/08/08 05:04:09;;;;;;;5.10;1.58;;;14.00;99.90;;;;;;4861934;29;20098;-53
2023/08/08 05:06:36;;;;;;;4.68;1.70;;;14.00;99.90;;;;;;4861640;29;20161;-53
2023/08/08 05:09:03;;;;;;;7.22;1.77;;;14.00;99.90;;;;;;4861819;29;20154;-49
2023/08/08 05:11:30;;;;;;;4.88;1.75;;;14.00;99.90;;;;;;4861727;29;20053;-47
2023/08/08 05:13:57;;;;;;;4.85;1.73;;;14.00;99.90;;;;;;4861789;29;20061;-50
2023/08/08 05:16:24;;;;;;;5.95;2.05;;;14.00;99.90;;;;;;4861547;29;20049;-51
2023/08/08 05:18:51;;;;;;;6.88;1.83;;;13.90;99.90;;;;;;4861586;29;20109;-50
2023/08/08 05:21:18;;;;;;;6.20;1.40;;;13.90;99.90;;;;;;4860440;29;20470;-53
2023/08/08 05:23:44;;;;;;;4.68;1.55;;;13.90;99.90;;;;;;4861705;29;20393;-55
2023/08/08 05:26:11;;;;;;;5.65;1.58;;;13.90;99.90;;;;;;4861263;29;20076;-52
2023/08/08 05:28:38;;;;;;;5.07;1.52;;;14.00;99.90;;;;;;4861141;29;20465;-53
2023/08/08 05:31:05;;;;;;;4.40;1.45;;;13.90;99.90;;;;;;4861409;29;20055;-54
2023/08/08 05:33:32;;;;;;;4.28;1.83;;;13.90;99.90;;;;;;4861502;29;20045;-54
2023/08/08 05:35:59;;;;;;;4.07;1.50;;;14.00;99.90;;;;;;4860340;29;20497;-50
2023/08/08 05:38:26;;;;;;;4.90;1.52;;;14.00;99.90;;;;;;4861167;29;20045;-55
2023/08/08 05:40:53;;;;;;;4.75;1.70;;;14.10;99.90;;;;;;4861238;29;20374;-53
2023/08/08 05:43:21;;;;;;;5.53;1.55;;;14.20;99.90;;;;;;4861375;29;20041;-55
2023/08/08 05:45:48;;;;;;;6.55;1.88;;;14.30;99.90;;;;;;4861274;29;20088;-56
2023/08/08 05:48:15;;;;;;;5.72;1.67;;;14.50;99.90;;;;;;4859976;29;20561;-51
2023/08/08 05:50:41;;;;;;;5.50;1.73;;;14.60;99.90;;;;;;4861097;29;20050;-50
2023/08/08 05:53:08;;;;;;;4.95;1.73;;;14.70;99.90;;;;;;4860060;29;20546;-51
2023/08/08 05:55:35;;;;;;;5.25;1.67;;;14.70;99.90;;;;;;4860886;29;20064;-49
2023/08/08 05:58:02;;;;;;;5.13;1.85;;;14.70;99.90;;;;;;4861290;29;20056;-49
2023/08/08 06:00:29;;;;;;;5.68;1.83;;;14.80;99.90;;;;;;4860898;29;20383;-49
2023/08/08 06:02:56;;;;;;;4.68;1.73;;;14.80;99.90;;;;;;4861267;29;20056;-56
2023/08/08 06:05:24;;;;;;;5.65;1.77;;;14.90;99.90;;;;;;4860010;29;20053;-52
2023/08/08 06:07:50;;;;;;;5.57;1.83;;;14.90;99.90;;;;;;4861195;29;20049;-53
2023/08/08 06:10:17;;;;;;;7.18;2.55;;;14.90;99.90;;;;;;4875395;29;20057;-56
2023/08/08 06:12:44;;;;;;;5.75;2.03;;;15.00;99.90;;;;;;4861405;29;20056;-50
2023/08/08 06:15:11;;;;;;;5.82;2.00;;;15.00;99.90;;;;;;4861104;29;20042;-50
2023/08/08 06:17:38;;;;;;;6.43;2.00;;;15.00;99.90;;;;;;4860980;29;20045;-48
2023/08/08 06:20:04;;;;;;;7.53;2.05;;;15.00;99.90;;;;;;4860857;29;20049;-55
2023/08/08 06:22:32;;;;;;;4.35;1.80;;;15.00;99.90;;;;;;4860948;29;20150;-48
2023/08/08 06:24:58;;;;;;;5.47;1.83;;;15.00;99.90;;;;;;4861000;29;20069;-53
2023/08/08 06:27:25;;;;;;;5.70;2.00;;;14.90;99.90;;;;;;4860968;29;20467;-53
2023/08/08 06:29:52;;;;;;;5.32;1.95;;;15.00;99.90;;;;;;4875183;29;20154;-51
2023/08/08 06:32:19;;;;;;;5.57;1.88;;;15.00;99.90;;;;;;4861163;29;20045;-52
2023/08/08 06:34:46;;;;;;;4.65;1.80;;;15.00;99.90;;;;;;4861001;29;20050;-53
2023/08/08 06:37:13;;;;;;;4.53;1.95;;;15.10;99.90;;;;;;4860772;29;20056;-54
2023/08/08 06:39:40;;;;;;;5.85;2.00;;;15.20;99.90;;;;;;4860868;29;20053;-53
2023/08/08 06:42:06;;;;;;;4.45;1.90;;;15.20;99.90;;;;;;4863063;29;20047;-50
2023/08/08 06:44:46;;;;;;;5.75;1.80;;;15.30;99.90;;;;;;4878632;29;20045;-54
2023/08/08 06:47:12;;;;;;;6.00;1.90;;;15.30;99.90;;;;;;4864242;29;20508;-53
2023/08/08 06:49:39;;;;;;;6.53;2.30;;;15.30;99.90;;;;;;4864128;29;20044;-51
2023/08/08 06:52:06;;;;;;;4.47;1.83;;;15.40;99.90;;;;;;4864106;29;20102;-51
2023/08/08 06:54:33;;;;;;;4.38;1.73;;;15.40;99.90;;;;;;4863168;29;20045;-52
2023/08/08 06:57:01;;;;;;;5.60;2.40;;;15.60;99.90;;;;;;4863758;29;20065;-52
2023/08/08 06:59:29;;;;;;;3.92;1.70;;;15.80;99.90;;;;;;4863772;29;20084;-52
2023/08/08 07:01:56;;;;;;;4.40;1.90;;;15.90;99.90;;;;;;4863917;29;20041;-48
2023/08/08 07:04:23;;;;;;;7.40;2.03;;;15.90;99.90;;;;;;4864114;29;20050;-53
2023/08/08 07:06:50;;;;;;;4.53;1.75;;;15.90;99.90;;;;;;4863531;29;20397;-56
2023/08/08 07:09:17;;;;;;;4.82;2.25;;;15.90;99.90;;;;;;4863502;29;20054;-53
2023/08/08 07:11:43;;;;;;;4.95;1.92;;;15.90;99.90;;;;;;4863630;29;20045;-53
2023/08/08 07:14:10;;;;;;;7.72;1.70;;;15.90;99.90;;;;;;4863573;29;20048;-49
2023/08/08 07:16:37;;;;;;;6.13;1.95;;;16.00;99.90;;;;;;4862888;29;20053;-51
2023/08/08 07:19:05;;;;;;;4.00;1.50;;;16.20;99.90;;;;;;4862536;29;20049;-49
2023/08/08 07:21:32;;;;;;;9.27;2.42;;;16.40;99.90;;;;;;4877596;29;20046;-50
2023/08/08 07:23:59;;;;;;;7.05;2.28;;;16.60;99.90;;;;;;4878068;29;20053;-53
2023/08/08 07:26:26;;;;;;;4.55;1.40;;;16.60;99.90;;;;;;4863954;29;20121;-51
2023/08/08 07:28:53;;;;;;;7.47;2.08;;;16.60;99.90;;;;;;4863687;29;20051;-52
2023/08/08 07:31:20;;;;;;;5.22;2.13;;;16.60;99.90;;;;;;4863817;29;20056;-54
2023/08/08 07:33:47;;;;;;;4.45;1.70;;;16.60;99.90;;;;;;4863378;29;20454;-53
2023/08/08 07:36:13;;;;;;;4.82;1.90;;;16.60;99.90;;;;;;4863723;29;20429;-51
2023/08/08 07:38:40;;;;;;;3.83;1.70;;;16.60;99.90;;;;;;4863634;29;20054;-50
2023/08/08 07:41:07;;;;;;;4.78;1.98;;;16.60;99.90;;;;;;4863358;29;20041;-51
2023/08/08 07:43:34;;;;;;;4.47;1.40;;;16.70;99.90;;;;;;4863602;29;20045;-56
2023/08/08 07:46:00;;;;;;;8.23;1.55;;;16.60;99.90;;;;;;4863216;29;20047;-57
2023/08/08 07:48:27;;;;;;;4.78;1.67;;;16.60;99.90;;;;;;4863303;29;20042;-49
2023/08/08 07:50:54;;;;;;;4.72;1.30;;;16.60;99.90;;;;;;4863143;29;20041;-50
2023/08/08 07:53:21;;;;;;;8.57;1.50;;;16.50;99.90;;;;;;4862763;29;20105;-51
2023/08/08 07:55:48;;;;;;;3.10;1.20;;;16.50;99.90;;;;;;4862810;29;20502;-54
2023/08/08 07:58:15;;;;;;;5.68;1.50;;;16.40;99.90;;;;;;4862985;29;20066;-53
2023/08/08 08:00:42;;;;;;;2.75;1.33;;;16.30;99.90;;;;;;4863083;29;20052;-52
2023/08/08 08:03:08;;;;;;;4.28;1.13;;;16.20;99.90;;;;;;4863283;29;20037;-54
2023/08/08 08:05:38;;;;;;;3.25;1.20;;;16.10;99.90;;;;;;4863063;29;20073;-54
2023/08/08 08:08:05;;;;;;;4.03;1.00;;;16.00;99.90;;;;;;4863008;29;20045;-53
2023/08/08 08:10:32;;;;;;;3.08;1.27;;;15.80;99.90;;;;;;4862907;29;20048;-50
2023/08/08 08:12:59;;;;;;;4.85;1.25;;;15.70;99.90;;;;;;4862743;29;20413;-53
2023/08/08 08:15:25;;;;;;;2.80;1.10;;;15.70;99.90;;;;;;4862468;29;20049;-52
2023/08/08 08:17:52;;;;;;;3.63;1.50;;;15.70;99.90;;;;;;4862969;29;20054;-53
2023/08/08 08:20:19;;;;;;;3.40;1.38;;;15.80;99.90;;;;;;4862875;29;20060;-51
2023/08/08 08:22:46;;;;;;;3.20;1.45;;;15.90;99.90;;;;;;4876753;29;20161;-55
2023/08/08 08:25:13;;;;;;;4.05;1.33;;;16.00;99.90;;;;;;4862429;29;20041;-54
2023/08/08 08:27:40;;;;;;;3.45;1.40;;;16.00;99.90;;;;;;4862199;29;20049;-57
2023/08/08 08:30:08;;;;;;;3.70;1.48;;;16.10;99.90;;;;;;4862289;29;20058;-53
2023/08/08 08:32:35;;;;;;;4.10;1.42;;;16.10;99.90;;;;;;4862119;29;20073;-51
2023/08/08 08:35:03;;;;;;;4.50;1.50;;;16.20;99.90;;;;;;4861990;29;20056;-49
2023/08/08 08:37:30;;;;;;;2.95;1.20;;;16.30;99.90;;;;;;4862665;29;20049;-54
2023/08/08 08:39:57;;;;;;;3.13;1.40;;;16.30;99.90;;;;;;4862377;29;20049;-54
2023/08/08 08:42:24;;;;;;;4.13;1.70;;;16.30;99.90;;;;;;4861379;29;20451;-51
2023/08/08 08:44:51;;;;;;;4.28;1.42;;;16.20;99.90;;;;;;4862038;29;20478;-52
2023/08/08 08:47:18;;;;;;;3.72;1.50;;;16.20;99.90;;;;;;4854499;29;20387;-50
2023/08/08 08:49:45;;;;;;;3.55;1.35;;;16.20;99.90;;;;;;4843517;29;20046;-52
2023/08/08 08:52:12;;;;;;;2.75;1.50;;;16.20;99.90;;;;;;4841860;29;20165;-51
2023/08/08 08:54:39;;;;;;;3.53;1.55;;;16.20;99.90;;;;;;4843408;29;20053;-56
2023/08/08 08:57:06;;;;;;;2.90;1.60;;;16.20;99.90;;;;;;4843224;29;20375;-55
2023/08/08 08:59:32;;;;;;;3.60;1.40;;;16.20;99.90;;;;;;4842992;29;20062;-53
2023/08/08 09:01:59;;;;;;;2.90;1.40;;;16.10;99.90;;;;;;4843216;29;20145;-54
2023/08/08 09:04:27;;;;;;;3.13;1.40;;;16.20;99.90;;;;;;4842466;29;20077;-53
2023/08/08 09:06:53;;;;;;;3.53;1.40;;;16.20;99.90;;;;;;4856624;29;20037;-55
2023/08/08 09:09:22;;;;;;;4.32;1.73;;;16.30;99.90;;;;;;4843125;29;20066;-59
2023/08/08 09:11:49;;;;;;;2.78;1.50;;;16.30;99.90;;;;;;4836622;29;20114;-54
2023/08/08 09:14:16;;;;;;;3.58;1.70;;;16.20;99.90;;;;;;4843054;29;20046;-56
2023/08/08 09:16:43;;;;;;;4.57;1.70;;;16.20;99.90;;;;;;4840954;29;20083;-56
2023/08/08 09:19:10;;;;;;;5.82;1.90;;;16.30;99.90;;;;;;4841711;29;20048;-57
2023/08/08 09:21:37;;;;;;;3.67;2.15;;;16.50;99.90;;;;;;4842316;29;20054;-52
2023/08/08 09:24:04;;;;;;;2.65;1.63;;;16.60;99.90;;;;;;4842917;29;20129;-54
2023/08/08 09:26:30;;;;;;;2.53;1.30;;;16.60;99.90;;;;;;4842405;29;20045;-52
2023/08/08 09:28:57;;;;;;;2.83;1.30;;;16.60;99.90;;;;;;4842776;29;20525;-55
2023/08/08 09:31:24;;;;;;;3.00;1.65;;;16.70;99.90;;;;;;4842415;29;20133;-54
2023/08/08 09:33:51;;;;;;;4.40;1.45;;;16.70;99.90;;;;;;4856857;29;20102;-56
2023/08/08 09:36:19;;;;;;;2.38;1.30;;;16.60;99.90;;;;;;4842321;29;20049;-54
2023/08/08 09:38:46;;;;;;;3.95;1.45;;;16.60;99.90;;;;;;4842475;29;20405;-52
2023/08/08 09:41:14;;;;;;;3.28;1.40;;;16.60;99.90;;;;;;4841386;29;20487;-53
2023/08/08 09:43:41;;;;;;;3.30;1.48;;;16.70;99.90;;;;;;4839343;29;20030;-58
2023/08/08 09:46:07;;;;;;;4.13;1.67;;;16.80;99.90;;;;;;4839838;29;20042;-52
2023/08/08 09:48:34;;;;;;;2.53;1.30;;;16.80;99.90;;;;;;4843258;29;20144;-53
2023/08/08 09:51:01;;;;;;;3.13;1.60;;;16.80;99.90;;;;;;4836839;29;20056;-52
2023/08/08 09:53:29;;;;;;;4.82;1.75;;;16.90;99.90;;;;;;4838453;29;20509;-55
2023/08/08 09:55:55;;;;;;;3.13;1.88;;;17.00;99.90;;;;;;4841603;29;20136;-56
2023/08/08 09:58:22;;;;;;;3.20;1.42;;;17.00;99.90;;;;;;4841668;29;20050;-51
2023/08/08 10:00:49;;;;;;;2.85;1.60;;;17.00;99.90;;;;;;4841806;29;20057;-52
2023/08/08 10:03:16;;;;;;;2.72;1.50;;;17.00;99.90;;;;;;4842041;29;20039;-53
2023/08/08 10:05:43;;;;;;;2.63;1.40;;;17.10;99.90;;;;;;4841642;29;20048;-52
2023/08/08 10:08:10;;;;;;;4.78;1.80;;;17.00;99.90;;;;;;4840247;29;20050;-55
2023/08/08 10:10:37;;;;;;;3.53;1.65;;;17.10;99.90;;;;;;4841325;29;20046;-50
2023/08/08 10:13:04;;;;;;;2.00;1.08;;;17.10;99.90;;;;;;4842243;29;20054;-53
2023/08/08 10:15:30;;;;;;;3.13;1.33;;;17.10;99.90;;;;;;4843223;29;20046;-52
2023/08/08 10:17:57;;;;;;;1.80;1.20;;;17.00;99.90;;;;;;4845402;29;20444;-51
2023/08/08 10:20:24;;;;;;;7.72;1.65;;;17.10;99.90;;;;;;4845250;29;20056;-55
2023/08/08 10:22:51;;;;;;;3.30;1.45;;;17.20;99.90;;;;;;4845467;29;20054;-55
2023/08/08 10:25:18;;;;;;;5.13;1.27;;;17.20;99.90;;;;;;4845467;29;20056;-54
2023/08/08 10:27:45;;;;;;;3.47;1.25;;;17.20;99.90;;;;;;4858916;29;20077;-54
2023/08/08 10:30:14;;;;;;;8.38;1.40;;;17.40;99.90;;;;;;4859350;29;20050;-57
2023/08/08 10:32:40;;;;;;;5.25;1.65;;;17.50;99.90;;;;;;4844302;29;20038;-54
2023/08/08 10:35:08;;;;;;;2.05;0.90;;;17.50;99.90;;;;;;4859825;29;20046;-52
2023/08/08 10:37:35;;;;;;;2.10;1.15;;;17.50;99.90;;;;;;4845427;29;20048;-56
2023/08/08 10:40:09;;;;;;;2.90;0.90;;;17.50;99.90;;;;;;4842990;29;20150;-57
2023/08/08 10:42:36;;;;;;;2.17;1.00;;;17.60;99.90;;;;;;4844230;29;20045;-55
2023/08/08 10:45:03;;;;;;;2.08;1.10;;;17.60;99.90;;;;;;4844044;29;20082;-60
2023/08/08 10:47:30;;;;;;;2.33;1.10;;;17.70;99.90;;;;;;4843689;29;20050;-54
2023/08/08 10:49:56;;;;;;;4.28;1.60;;;17.60;99.90;;;;;;4844145;29;20061;-57
2023/08/08 10:52:23;;;;;;;2.75;1.40;;;17.60;99.90;;;;;;4844229;29;20082;-55
2023/08/08 10:54:50;;;;;;;3.58;1.20;;;17.60;99.90;;;;;;4843956;29;20085;-53
2023/08/08 10:57:19;;;;;;;2.53;1.25;;;17.70;99.90;;;;;;4843114;29;20172;-56
2023/08/08 10:59:45;;;;;;;3.33;1.65;;;17.90;99.90;;;;;;4843590;29;20046;-51
2023/08/08 11:02:12;;;;;;;2.78;1.48;;;18.10;99.90;;;;;;4843849;29;20046;-55
2023/08/08 11:04:39;;;;;;;4.03;1.67;;;18.40;99.90;;;;;;4858019;29;20134;-56
2023/08/08 11:07:07;;;;;;;4.65;1.80;;;18.60;99.90;;;;;;4857960;29;20069;-56
2023/08/08 11:09:33;;;;;;;4.15;1.80;;;18.80;99.90;;;;;;4844490;29;20089;-57
2023/08/08 11:12:00;;;;;;;2.67;1.27;;;19.00;99.90;;;;;;4844668;29;20050;-54
2023/08/08 11:14:28;;;;;;;3.50;1.60;;;19.30;99.90;;;;;;4858414;29;20061;-57
2023/08/08 11:16:55;;;;;;;3.58;1.50;;;19.30;99.90;;;;;;4844616;29;20045;-53
2023/08/08 11:19:23;;;;;;;3.78;1.60;;;19.20;99.90;;;;;;4844769;29;20046;-53
2023/08/08 11:21:50;;;;;;;3.95;1.40;;;19.10;99.90;;;;;;4844004;29;20060;-54
2023/08/08 11:24:17;;;;;;;3.05;1.42;;;19.00;99.90;;;;;;4844545;29;20120;-57
2023/08/08 11:26:45;;;;;;;3.17;1.30;;;18.90;99.90;;;;;;4844059;29;20034;-54
2023/08/08 11:29:12;;;;;;;2.25;1.10;;;18.90;99.90;;;;;;4843228;29;20057;-54
2023/08/08 11:31:39;;;;;;;4.07;1.50;;;18.90;99.90;;;;;;4844153;29;20125;-53
2023/08/08 11:34:07;;;;;;;3.60;1.50;;;18.90;99.90;;;;;;4843909;29;20062;-54
2023/08/08 11:36:34;;;;;;;2.88;1.40;;;18.90;99.90;;;;;;4844222;29;20042;-55
2023/08/08 11:39:01;;;;;;;2.75;1.27;;;18.90;99.90;;;;;;4841709;29;20475;-57
2023/08/08 11:41:28;;;;;;;4.53;1.80;;;18.90;99.90;;;;;;4858696;29;20124;-55
2023/08/08 11:43:54;;;;;;;4.47;2.30;;;18.70;99.90;;;;;;4844381;29;20054;-58
2023/08/08 11:46:21;;;;;;;4.65;1.55;;;18.60;99.90;;;;;;4843658;29;20114;-56
2023/08/08 11:48:48;;;;;;;4.03;1.60;;;18.60;99.90;;;;;;4844340;29;20056;-54
2023/08/08 11:51:15;;;;;;;3.13;1.95;;;18.60;99.90;;;;;;4844304;29;20045;-56
2023/08/08 11:53:42;;;;;;;3.75;1.58;;;18.60;99.90;;;;;;4843917;29;20057;-51
2023/08/08 11:56:08;;;;;;;5.10;2.05;;;18.60;99.90;;;;;;4837428;29;20065;-52
2023/08/08 11:58:35;;;;;;;3.28;1.90;;;18.50;99.90;;;;;;4843981;29;20049;-53
2023/08/08 12:01:02;;;;;;;6.05;2.10;;;18.40;99.90;;;;;;4843767;29;20042;-54
2023/08/08 12:03:29;;;;;;;2.72;1.77;;;18.40;99.90;;;;;;4844090;29;20138;-56
2023/08/08 12:05:56;;;;;;;3.72;1.77;;;18.40;99.90;;;;;;4844047;29;20038;-56
2023/08/08 12:08:23;;;;;;;3.50;1.83;;;18.30;99.90;;;;;;4843788;29;20038;-53
2023/08/08 12:10:56;;;;;;;4.32;2.20;;;18.30;99.90;;;;;;4842353;29;20060;-57
2023/08/08 12:13:25;;;;;;;4.28;1.90;;;18.30;99.90;;;;;;4851410;29;20525;-57
2023/08/08 12:15:52;;;;;;;4.07;2.35;;;18.30;99.90;;;;;;4843821;29;20065;-57
2023/08/08 12:18:21;;;;;;;5.70;2.60;;;18.40;99.90;;;;;;4843922;29;20065;-56
2023/08/08 12:20:48;;;;;;;3.97;1.98;;;18.40;99.90;;;;;;4843620;29;20088;-55
2023/08/08 12:23:15;;;;;;;3.30;2.10;;;18.50;99.90;;;;;;4843573;29;20169;-55
2023/08/08 12:25:42;;;;;;;4.15;1.55;;;18.60;99.90;;;;;;4843515;29;20052;-57
2023/08/08 12:28:10;;;;;;;4.35;1.75;;;18.70;99.90;;;;;;4843462;29;20042;-54
2023/08/08 12:30:36;;;;;;;7.13;1.60;;;18.80;99.90;;;;;;4843323;29;20089;-55
2023/08/08 12:33:03;;;;;;;3.38;1.33;;;18.80;99.90;;;;;;4843419;29;20497;-55
2023/08/08 12:35:30;;;;;;;2.67;1.00;;;18.90;99.90;;;;;;4843064;29;20513;-54
2023/08/08 12:37:57;;;;;;;4.80;1.02;;;19.00;99.90;;;;;;4843121;29;20087;-56
2023/08/08 12:40:25;;;;;;;4.32;1.35;;;19.20;99.90;;;;;;4842466;29;20133;-53
2023/08/08 12:42:52;;;;;;;1.70;0.82;;;19.30;99.90;;;;;;4843174;29;20045;-58
2023/08/08 12:45:18;;;;;;;2.95;1.00;;;19.30;99.90;;;;;;4848822;29;20454;-54
2023/08/08 12:47:45;;;;;;;2.40;1.00;;;19.30;99.90;;;;;;4843473;29;20045;-55